Maersk Barry — OYJE2 — position and weather

sailwx.info

Track history (hours):
 
Tides and Currents Weather Stations Pressure Air Temp Water Temp Dewpoint Dewpoint Depression Visibility Wind Speed Wind Dir Waves Ship Positions

Maersk Barry

Last reported at 2016-Jun-08 13:24 UTC. Time now 2016-Jul-01 06:20 UTC.
Position N 31°39' E 031°45'.
Warning: this ship's position is 22 days out of date.

Length 175 m; draft 8.9 m.

Type: Ship. MMSI: 219127000.

Date/timePositionNaut miles runAvg speedWind from/ knotsBaromVisibWave heightAir tempDewpointWater temp
2016-Jun-08 13:24N 31°39' E 031°45'0 0.0
2016-Jun-08 12:33N 31°39' E 031°45'0 0.0
2016-Jun-08 10:30N 31°39' E 031°45'0 0.0
2016-Jun-08 09:33N 31°39' E 031°45'0 0.2
2016-Jun-08 08:33N 31°39' E 031°44'9 9.0
2016-Jun-08 07:33N 31°47' E 031°39'1312.7
2016-Jun-08 06:33N 31°57' E 031°30'1312.8
2016-Jun-08 05:33N 32°07' E 031°21'1412.4
2016-Jun-08 04:26N 32°18' E 031°11'11512.6
2016-Jun-07 19:17N 33°45' E 029°41'912.8
2016-Jun-07 18:33N 33°52' E 029°33'1312.9
2016-Jun-07 17:33N 34°02' E 029°23'1313.1
2016-Jun-07 16:34N 34°12' E 029°13'1813.2
2016-Jun-07 15:14N 34°25' E 028°59'913.2
2016-Jun-07 14:33N 34°32' E 028°52'9312.7
2016-Jun-07 07:11N 35°42' E 027°37'13112.1
2016-Jun-06 20:22N 37°24' E 025°55'14312.1
2016-Jun-06 08:33N 39°47' E 025°46'16212.0
2016-Jun-05 19:04N 40°58' E 028°57'  
2016-Jun-03 13:34N 45°58' E 031°01'1212.4
2016-Jun-03 12:33N 46°11' E 031°00'1111.1
2016-Jun-03 11:33N 46°21' E 030°55'1111.4
2016-Jun-03 10:34N 46°33' E 030°57'1110.7
2016-Jun-03 09:33N 46°35' E 031°12'1211.5
2016-Jun-03 08:31N 46°36' E 031°30'9 9.1
2016-Jun-03 07:33N 46°36' E 031°42'9 9.2
2016-Jun-03 06:33N 46°38' E 031°55'9 8.5
2016-Jun-03 05:33N 46°47' E 031°53'9 9.4
2016-Jun-03 04:33N 46°55' E 032°01'2 2.2
2016-Jun-03 03:32N 46°57' E 031°60'0 0.0
2016-Jun-03 02:32N 46°57' E 031°60'0 0.0
2016-Jun-03 01:32N 46°57' E 031°60'0 0.0
2016-Jun-03 00:32N 46°57' E 031°60'0 0.0
2016-Jun-02 23:32N 46°57' E 031°60'0 0.0
2016-Jun-02 22:32N 46°57' E 031°60'0 0.0
2016-Jun-02 21:32N 46°57' E 031°60'0 0.0
2016-Jun-02 20:32N 46°57' E 031°60'0 0.0
2016-Jun-02 19:32N 46°57' E 031°60'0 0.0
2016-Jun-02 18:32N 46°57' E 031°60'0 0.0
2016-Jun-02 17:32N 46°57' E 031°60'0 0.0
2016-Jun-02 16:32N 46°57' E 031°60'0 0.0
2016-Jun-02 15:32N 46°57' E 031°60'0 0.0
2016-Jun-02 14:32N 46°57' E 031°60'0 0.0
2016-Jun-02 13:32N 46°57' E 031°60'0 0.0
2016-Jun-02 12:32N 46°57' E 031°60'0 0.0
2016-Jun-02 11:32N 46°57' E 031°60'0 0.0
2016-Jun-02 10:32N 46°57' E 031°60'0 0.0
2016-Jun-02 09:32N 46°57' E 031°60'0 0.0
2016-Jun-02 08:32N 46°57' E 031°60'0 0.0
2016-Jun-02 07:32N 46°57' E 031°60'0 0.0
2016-Jun-02 06:32N 46°57' E 031°60'0 0.0
2016-Jun-02 05:32N 46°57' E 031°60'0 0.0
2016-Jun-02 04:32N 46°57' E 031°60'0 0.0
2016-Jun-02 03:32N 46°57' E 031°60'0 0.0
2016-Jun-02 02:32N 46°57' E 031°60'0 0.0
2016-Jun-02 01:32N 46°57' E 031°60'0 0.0
2016-Jun-02 00:32N 46°57' E 031°60'0 0.0
2016-Jun-01 23:32N 46°57' E 031°60'0 0.0
2016-Jun-01 22:32N 46°57' E 031°60'0 0.0
2016-Jun-01 21:29N 46°57' E 031°60'0 0.0
2016-Jun-01 20:32N 46°57' E 031°60'0 0.0
2016-Jun-01 19:32N 46°57' E 031°60'0 0.0
2016-Jun-01 18:32N 46°57' E 031°60'0 0.0
2016-Jun-01 17:32N 46°57' E 031°60'0 0.0
2016-Jun-01 16:32N 46°57' E 031°60'0 0.0
2016-Jun-01 15:32N 46°57' E 031°60'0 0.0
2016-Jun-01 14:32N 46°57' E 031°60'0 0.0
2016-Jun-01 13:32N 46°57' E 031°60'0 0.0
2016-Jun-01 12:32N 46°57' E 031°60'0 0.0
2016-Jun-01 11:32N 46°57' E 031°60'0 0.0
2016-Jun-01 10:32N 46°57' E 031°60'0 0.0
2016-Jun-01 09:32N 46°57' E 031°60'0 0.0
2016-Jun-01 08:32N 46°57' E 031°60'0 0.0
2016-Jun-01 07:32N 46°57' E 031°60'0 0.0
2016-Jun-01 06:32N 46°57' E 031°60'0 0.0
2016-Jun-01 05:29N 46°57' E 031°60'0 0.0
2016-Jun-01 04:32N 46°57' E 031°60'0 0.0
2016-Jun-01 03:32N 46°57' E 031°60'0 0.0
2016-Jun-01 02:32N 46°57' E 031°60'0 0.0
2016-Jun-01 01:32N 46°57' E 031°60'0 0.0
2016-Jun-01 00:32N 46°57' E 031°60'0 0.0
2016-May-31 23:32N 46°57' E 031°60'0 0.0
2016-May-31 22:32N 46°57' E 031°60'0 0.0
2016-May-31 21:32N 46°57' E 031°60'0 0.0
2016-May-31 20:33N 46°57' E 031°60'5 4.9
2016-May-31 19:33N 46°52' E 031°59'1010.1
2016-May-31 18:33N 46°42' E 031°56'1110.5
2016-May-31 17:33N 46°36' E 031°44'1311.5
2016-May-31 16:25N 46°35' E 031°25'1113.1
2016-May-31 15:33N 46°35' E 031°09'1110.5
2016-May-31 14:33N 46°29' E 030°57'6 6.4
2016-May-31 13:34N 46°22' E 030°57'4 3.9
2016-May-31 12:33N 46°21' E 031°02'2 1.9
2016-May-31 11:31N 46°20' E 031°04'0 0.0
2016-May-31 10:31N 46°20' E 031°04'0 0.1
2016-May-31 09:31N 46°20' E 031°04'0 0.0
2016-May-31 08:31N 46°20' E 031°05'0 0.0
2016-May-31 07:31N 46°20' E 031°05'0 0.0
2016-May-31 06:31N 46°20' E 031°04'0 0.0
2016-May-31 04:31N 46°20' E 031°04'0 0.0
2016-May-31 03:31N 46°20' E 031°04'0 0.0
2016-May-31 02:31N 46°20' E 031°04'0 0.0
2016-May-31 01:31N 46°20' E 031°04'0 0.1
2016-May-31 00:31N 46°20' E 031°04'0 0.1
2016-May-30 23:31N 46°19' E 031°04'0 0.1
2016-May-30 22:31N 46°20' E 031°05'0 0.0
2016-May-30 21:31N 46°20' E 031°05'0 0.0
2016-May-30 20:31N 46°20' E 031°05'0 0.0
2016-May-30 19:31N 46°20' E 031°05'0 0.0
2016-May-30 18:31N 46°20' E 031°05'0 0.0
2016-May-30 17:28N 46°20' E 031°05'0 0.0
2016-May-30 16:31N 46°20' E 031°05'0 0.0
2016-May-30 15:31N 46°20' E 031°05'0 0.0
2016-May-30 14:31N 46°20' E 031°04'0 0.0
2016-May-30 13:31N 46°20' E 031°04'0 0.0
2016-May-30 12:31N 46°20' E 031°04'0 0.0
2016-May-30 11:28N 46°20' E 031°04'0 0.0
2016-May-30 10:28N 46°20' E 031°04'0 0.1
2016-May-30 09:31N 46°20' E 031°04'0 0.0
2016-May-30 08:31N 46°19' E 031°04'0 0.0
2016-May-30 07:31N 46°19' E 031°04'0 0.0
2016-May-30 06:28N 46°19' E 031°04'0 0.0
2016-May-30 05:28N 46°19' E 031°04'2 2.0
2016-May-30 04:33N 46°18' E 031°06'1111.2
2016-May-30 03:33N 46°07' E 031°09'  
Track history (hours):
 
Tides and Currents Weather Stations Pressure Air Temp Water Temp Dewpoint Dewpoint Depression Visibility Wind Speed Wind Dir Waves Ship Positions

Maersk Barry

Last reported at 2016-Jun-08 13:24 UTC. Time now 2016-Jul-01 06:20 UTC.
Position N 31°39' E 031°45'.
Warning: this ship's position is 22 days out of date.

Length 175 m; draft 8.9 m.

Type: Ship. MMSI: 219127000.

Date/timePositionNaut miles runAvg speedWind from/ knotsBaromVisibWave heightAir tempDewpointWater temp
2016-Jun-08 13:24N 31°39' E 031°45'0 0.0
2016-Jun-08 12:33N 31°39' E 031°45'0 0.0
2016-Jun-08 10:30N 31°39' E 031°45'0 0.0
2016-Jun-08 09:33N 31°39' E 031°45'0 0.2
2016-Jun-08 08:33N 31°39' E 031°44'9 9.0
2016-Jun-08 07:33N 31°47' E 031°39'1312.7
2016-Jun-08 06:33N 31°57' E 031°30'1312.8
2016-Jun-08 05:33N 32°07' E 031°21'1412.4
2016-Jun-08 04:26N 32°18' E 031°11'11512.6
2016-Jun-07 19:17N 33°45' E 029°41'912.8
2016-Jun-07 18:33N 33°52' E 029°33'1312.9
2016-Jun-07 17:33N 34°02' E 029°23'1313.1
2016-Jun-07 16:34N 34°12' E 029°13'1813.2
2016-Jun-07 15:14N 34°25' E 028°59'913.2
2016-Jun-07 14:33N 34°32' E 028°52'9312.7
2016-Jun-07 07:11N 35°42' E 027°37'13112.1
2016-Jun-06 20:22N 37°24' E 025°55'14312.1
2016-Jun-06 08:33N 39°47' E 025°46'16212.0
2016-Jun-05 19:04N 40°58' E 028°57'  
2016-Jun-03 13:34N 45°58' E 031°01'1212.4
2016-Jun-03 12:33N 46°11' E 031°00'1111.1
2016-Jun-03 11:33N 46°21' E 030°55'1111.4
2016-Jun-03 10:34N 46°33' E 030°57'1110.7
2016-Jun-03 09:33N 46°35' E 031°12'1211.5
2016-Jun-03 08:31N 46°36' E 031°30'9 9.1
2016-Jun-03 07:33N 46°36' E 031°42'9 9.2
2016-Jun-03 06:33N 46°38' E 031°55'9 8.5
2016-Jun-03 05:33N 46°47' E 031°53'9 9.4
2016-Jun-03 04:33N 46°55' E 032°01'2 2.2
2016-Jun-03 03:32N 46°57' E 031°60'0 0.0
2016-Jun-03 02:32N 46°57' E 031°60'0 0.0
2016-Jun-03 01:32N 46°57' E 031°60'0 0.0
2016-Jun-03 00:32N 46°57' E 031°60'0 0.0
2016-Jun-02 23:32N 46°57' E 031°60'0 0.0
2016-Jun-02 22:32N 46°57' E 031°60'0 0.0
2016-Jun-02 21:32N 46°57' E 031°60'0 0.0
2016-Jun-02 20:32N 46°57' E 031°60'0 0.0
2016-Jun-02 19:32N 46°57' E 031°60'0 0.0
2016-Jun-02 18:32N 46°57' E 031°60'0 0.0
2016-Jun-02 17:32N 46°57' E 031°60'0 0.0
2016-Jun-02 16:32N 46°57' E 031°60'0 0.0
2016-Jun-02 15:32N 46°57' E 031°60'0 0.0
2016-Jun-02 14:32N 46°57' E 031°60'0 0.0
2016-Jun-02 13:32N 46°57' E 031°60'0 0.0
2016-Jun-02 12:32N 46°57' E 031°60'0 0.0
2016-Jun-02 11:32N 46°57' E 031°60'0 0.0
2016-Jun-02 10:32N 46°57' E 031°60'0 0.0
2016-Jun-02 09:32N 46°57' E 031°60'0 0.0
2016-Jun-02 08:32N 46°57' E 031°60'0 0.0
2016-Jun-02 07:32N 46°57' E 031°60'0 0.0
2016-Jun-02 06:32N 46°57' E 031°60'0 0.0
2016-Jun-02 05:32N 46°57' E 031°60'0 0.0
2016-Jun-02 04:32N 46°57' E 031°60'0 0.0
2016-Jun-02 03:32N 46°57' E 031°60'0 0.0
2016-Jun-02 02:32N 46°57' E 031°60'0 0.0
2016-Jun-02 01:32N 46°57' E 031°60'0 0.0
2016-Jun-02 00:32N 46°57' E 031°60'0 0.0
2016-Jun-01 23:32N 46°57' E 031°60'0 0.0
2016-Jun-01 22:32N 46°57' E 031°60'0 0.0
2016-Jun-01 21:29N 46°57' E 031°60'0 0.0
2016-Jun-01 20:32N 46°57' E 031°60'0 0.0
2016-Jun-01 19:32N 46°57' E 031°60'0 0.0
2016-Jun-01 18:32N 46°57' E 031°60'0 0.0
2016-Jun-01 17:32N 46°57' E 031°60'0 0.0
2016-Jun-01 16:32N 46°57' E 031°60'0 0.0
2016-Jun-01 15:32N 46°57' E 031°60'0 0.0
2016-Jun-01 14:32N 46°57' E 031°60'0 0.0
2016-Jun-01 13:32N 46°57' E 031°60'0 0.0
2016-Jun-01 12:32N 46°57' E 031°60'0 0.0
2016-Jun-01 11:32N 46°57' E 031°60'0 0.0
2016-Jun-01 10:32N 46°57' E 031°60'0 0.0
2016-Jun-01 09:32N 46°57' E 031°60'0 0.0
2016-Jun-01 08:32N 46°57' E 031°60'0 0.0
2016-Jun-01 07:32N 46°57' E 031°60'0 0.0
2016-Jun-01 06:32N 46°57' E 031°60'0 0.0
2016-Jun-01 05:29N 46°57' E 031°60'0 0.0
2016-Jun-01 04:32N 46°57' E 031°60'0 0.0
2016-Jun-01 03:32N 46°57' E 031°60'0 0.0
2016-Jun-01 02:32N 46°57' E 031°60'0 0.0
2016-Jun-01 01:32N 46°57' E 031°60'0 0.0
2016-Jun-01 00:32N 46°57' E 031°60'0 0.0
2016-May-31 23:32N 46°57' E 031°60'0 0.0
2016-May-31 22:32N 46°57' E 031°60'0 0.0
2016-May-31 21:32N 46°57' E 031°60'0 0.0
2016-May-31 20:33N 46°57' E 031°60'5 4.9
2016-May-31 19:33N 46°52' E 031°59'1010.1
2016-May-31 18:33N 46°42' E 031°56'1110.5
2016-May-31 17:33N 46°36' E 031°44'1311.5
2016-May-31 16:25N 46°35' E 031°25'1113.1
2016-May-31 15:33N 46°35' E 031°09'1110.5
2016-May-31 14:33N 46°29' E 030°57'6 6.4
2016-May-31 13:34N 46°22' E 030°57'4 3.9
2016-May-31 12:33N 46°21' E 031°02'2 1.9
2016-May-31 11:31N 46°20' E 031°04'0 0.0
2016-May-31 10:31N 46°20' E 031°04'0 0.1
2016-May-31 09:31N 46°20' E 031°04'0 0.0
2016-May-31 08:31N 46°20' E 031°05'0 0.0
2016-May-31 07:31N 46°20' E 031°05'0 0.0
2016-May-31 06:31N 46°20' E 031°04'0 0.0
2016-May-31 04:31N 46°20' E 031°04'0 0.0
2016-May-31 03:31N 46°20' E 031°04'0 0.0
2016-May-31 02:31N 46°20' E 031°04'0 0.0
2016-May-31 01:31N 46°20' E 031°04'0 0.1
2016-May-31 00:31N 46°20' E 031°04'0 0.1
2016-May-30 23:31N 46°19' E 031°04'0 0.1
2016-May-30 22:31N 46°20' E 031°05'0 0.0
2016-May-30 21:31N 46°20' E 031°05'0 0.0
2016-May-30 20:31N 46°20' E 031°05'0 0.0
2016-May-30 19:31N 46°20' E 031°05'0 0.0
2016-May-30 18:31N 46°20' E 031°05'0 0.0
2016-May-30 17:28N 46°20' E 031°05'0 0.0
2016-May-30 16:31N 46°20' E 031°05'0 0.0
2016-May-30 15:31N 46°20' E 031°05'0 0.0
2016-May-30 14:31N 46°20' E 031°04'0 0.0
2016-May-30 13:31N 46°20' E 031°04'0 0.0
2016-May-30 12:31N 46°20' E 031°04'0 0.0
2016-May-30 11:28N 46°20' E 031°04'0 0.0
2016-May-30 10:28N 46°20' E 031°04'0 0.1
2016-May-30 09:31N 46°20' E 031°04'0 0.0
2016-May-30 08:31N 46°19' E 031°04'0 0.0
2016-May-30 07:31N 46°19' E 031°04'0 0.0
2016-May-30 06:28N 46°19' E 031°04'0 0.0
2016-May-30 05:28N 46°19' E 031°04'2 2.0
2016-May-30 04:33N 46°18' E 031°06'1111.2
2016-May-30 03:33N 46°07' E 031°09'  

Dump ship's entire track history